Startpagina
METAR-TAF:

METAR-TAF

Vliegvelden :

Tsjoengking, China

Internationale luchthaven Chongqing Jiangbei

breedte: 29-31N, lengte: 106-29E, hoogte: 351 m

Actueel weer

Dit bericht is 32 minuten geleden gemaakt, om 04:00 UTC
Wind 6 kt uit het oostnoordoosten, variërend tussen het noordnoordoosten en het oosten
Temperatuur 9°C
Vochtigheid 71%
Druk 1024 hPa
Zicht 10 km of meer
Weinig wolken op 4600 ft

METAR: ZUCK 140400Z 07003MPS 030V100 9999 FEW046 09/04 Q1024 NOSIG

Tijdstip: 12:32 (04:32 UTC)

Verwachting

Dit bericht is 9 uur en het 25 minuten geleden gemaakt, om 19:07 UTC
Verwachting geldig van 14 om 00 UTC tot 14 om 24 UTC
Wind 6 kt uit het noordnoordoosten
Zicht: 3500 m
Verspreide wolken op 2000 ft
Geheel bewolkt op 5000 ft
nevel

TAF: ZUCK 131907Z 1400/1424 03003MPS 3500 BR SCT020 OVC050 TX09/1407Z TN07/1422Z

Waarnemingen en weersverwachtingen van meer dan 4000 vliegvelden (METAR en TAF).

De beschikbare stations zijn de gele en rode punten op de kaart.

Ga met uw muis naar het station om de naam te zien.

Klik dan om waarnemingen en weersverwachtingen te zien.

kaart wijzigen: klik op de groene knoppen met een zwart kruis om in te zoomen, op de groene knop met een streepje om uit te zoomen of op de groene pijlen voor aangrenzende kaarten.


METAR-TAF: